Time;durP1;ratioP1;P1;durP2;ratioP2;P2;SDS_P1;SDS_P2;PMS_P1;PMS_P2;Temp;Humidity;BMP_temperature;BMP_pressure;BME280_temperature;BME280_humidity;BME280_pressure;Samples;Min_cycle;Max_cycle;Signal;HPM_P1;HPM_P2
2022/07/28 00:02:21;;;;;;;0.37;0.37;;;;;;;11.49;83.37;100816.41;5072702;28;20224;-74
2022/07/28 00:04:46;;;;;;;0.10;0.10;;;;;;;11.41;84.32;100819.84;5072692;28;20179;-74
2022/07/28 00:07:12;;;;;;;0.00;0.00;;;;;;;11.30;84.89;100822.84;5072553;28;20158;-74
2022/07/28 00:09:37;;;;;;;0.00;0.00;;;;;;;11.28;85.54;100824.22;5072344;28;20180;-73
2022/07/28 00:12:03;;;;;;;0.10;0.10;;;;;;;11.19;85.54;100818.69;5072899;28;20509;-73
2022/07/28 00:14:29;;;;;;;0.10;0.10;;;;;;;11.22;85.82;100823.53;5074681;28;20190;-71
2022/07/28 00:16:54;;;;;;;0.00;0.00;;;;;;;11.21;85.86;100827.38;5072737;28;20205;-70
2022/07/28 00:19:20;;;;;;;0.00;0.00;;;;;;;11.16;86.07;100816.56;5072451;28;20171;-75
2022/07/28 00:21:45;;;;;;;0.00;0.00;;;;;;;11.13;86.49;100830.84;5071766;28;20174;-73
2022/07/28 00:24:10;;;;;;;0.00;0.00;;;;;;;11.17;86.75;100826.41;5072475;28;20205;-74
2022/07/28 00:26:36;;;;;;;0.00;0.00;;;;;;;11.19;87.07;100817.88;5072343;28;20166;-73
2022/07/28 00:29:02;;;;;;;0.30;0.30;;;;;;;11.20;86.70;100816.75;5071759;28;20262;-72
2022/07/28 00:31:27;;;;;;;0.00;0.00;;;;;;;11.18;86.36;100816.25;5070739;28;20178;-74
2022/07/28 00:33:52;;;;;;;0.30;0.30;;;;;;;11.14;86.39;100817.97;5072072;28;20183;-73
2022/07/28 00:36:18;;;;;;;0.40;0.40;;;;;;;11.08;87.04;100811.81;5071813;28;20630;-73
2022/07/28 00:38:43;;;;;;;0.00;0.00;;;;;;;11.07;87.39;100812.94;5070313;28;20517;-74
2022/07/28 00:41:11;;;;;;;0.83;0.83;;;;;;;11.06;87.64;100822.25;5071886;28;20171;-75
2022/07/28 00:43:42;;;;;;;0.10;0.10;;;;;;;11.03;87.41;100817.41;5071634;28;20240;-73
2022/07/28 00:46:08;;;;;;;0.00;0.00;;;;;;;11.01;87.93;100823.16;5070504;28;20163;-73
2022/07/28 00:48:37;;;;;;;0.00;0.00;;;;;;;11.03;87.89;100817.41;5071327;28;20177;-74
2022/07/28 00:51:03;;;;;;;1.70;0.43;;;;;;;10.97;88.08;100815.88;5071559;28;20182;-73
2022/07/28 00:53:28;;;;;;;0.00;0.00;;;;;;;10.91;87.64;100819.81;5071791;28;20178;-74
2022/07/28 00:55:54;;;;;;;0.00;0.00;;;;;;;10.84;88.06;100816.66;5070157;28;20182;-73
2022/07/28 00:58:19;;;;;;;0.00;0.00;;;;;;;10.73;88.40;100810.63;5070545;28;20201;-75
2022/07/28 01:00:45;;;;;;;0.00;0.00;;;;;;;10.67;88.98;100809.88;5071605;28;20645;-74
2022/07/28 01:03:10;;;;;;;0.00;0.00;;;;;;;10.65;89.36;100809.38;5071342;28;20198;-75
2022/07/28 01:05:44;;;;;;;0.00;0.00;;;;;;;10.51;89.68;100815.94;5071416;28;20251;-74
2022/07/28 01:08:18;;;;;;;0.00;0.00;;;;;;;10.40;90.49;100816.13;5069724;28;20186;-74
2022/07/28 01:10:50;;;;;;;0.00;0.00;;;;;;;10.34;91.45;100819.25;5071381;28;20182;-74
2022/07/28 01:13:43;;;;;;;0.00;0.00;;;;;;;10.37;92.08;100813.19;5070095;28;20174;-74
2022/07/28 01:16:09;;;;;;;0.83;0.83;;;;;;;10.43;92.31;100818.28;5069053;28;20194;-74
2022/07/28 01:18:46;;;;;;;0.53;0.53;;;;;;;10.44;92.02;100821.81;5070851;28;20182;-73
2022/07/28 01:21:16;;;;;;;0.00;0.00;;;;;;;10.46;91.92;100811.41;5070477;28;20243;-74
2022/07/28 01:24:09;;;;;;;0.00;0.00;;;;;;;10.46;91.67;100816.06;5069680;28;20208;-74
2022/07/28 01:26:52;;;;;;;0.10;0.10;;;;;;;10.35;91.64;100821.69;5070862;28;20257;-73
2022/07/28 01:29:35;;;;;;;0.00;0.00;;;;;;;10.32;92.29;100816.03;5069653;28;20171;-73
2022/07/28 01:32:08;;;;;;;0.00;0.00;;;;;;;10.27;92.84;100827.88;5071017;28;20208;-74
2022/07/28 01:34:44;;;;;;;0.00;0.00;;;;;;;10.22;92.64;100821.66;5069662;28;20174;-74
2022/07/28 01:37:16;;;;;;;0.00;0.00;;;;;;;10.15;93.13;100816.56;5071004;28;20162;-75
2022/07/28 01:39:43;;;;;;;0.00;0.00;;;;;;;10.11;93.36;100824.53;5070809;28;20224;-73
2022/07/28 01:42:12;;;;;;;0.00;0.00;;;;;;;10.09;93.50;100810.38;5070874;28;20328;-73
2022/07/28 01:44:42;;;;;;;0.00;0.00;;;;;;;10.11;93.99;100823.72;5070912;28;20205;-73
2022/07/28 01:47:09;;;;;;;0.00;0.00;;;;;;;10.08;94.15;100821.59;5070830;28;20175;-73
2022/07/28 01:49:35;;;;;;;0.00;0.00;;;;;;;10.05;94.42;100817.53;5069412;28;20179;-74
2022/07/28 01:52:05;;;;;;;0.00;0.00;;;;;;;10.04;94.43;100810.47;5070685;28;20228;-73
2022/07/28 01:54:33;;;;;;;0.00;0.00;;;;;;;10.04;94.27;100807.72;5070797;28;20257;-74
2022/07/28 01:56:59;;;;;;;0.00;0.00;;;;;;;9.97;94.23;100806.47;5070597;28;20185;-73
2022/07/28 01:59:28;;;;;;;0.10;0.10;;;;;;;9.92;94.46;100812.84;5069191;28;20178;-73
2022/07/28 02:01:55;;;;;;;0.00;0.00;;;;;;;9.92;94.74;100807.38;5070732;28;20185;-74
2022/07/28 02:04:22;;;;;;;0.00;0.00;;;;;;;10.00;95.07;100809.44;5069436;28;20257;-73
2022/07/28 02:06:49;;;;;;;0.00;0.00;;;;;;;10.08;95.25;100795.09;5070533;28;20171;-73
2022/07/28 02:09:17;;;;;;;0.00;0.00;;;;;;;10.16;94.96;100795.53;5073109;28;20163;-73
2022/07/28 02:11:44;;;;;;;0.00;0.00;;;;;;;10.23;94.41;100793.25;5074749;28;20174;-73
2022/07/28 02:14:14;;;;;;;0.00;0.00;;;;;;;10.19;93.76;100800.38;5073386;28;20257;-74
2022/07/28 02:16:45;;;;;;;0.00;0.00;;;;;;;10.13;92.95;100792.28;5073287;28;20178;-76
2022/07/28 02:19:12;;;;;;;0.00;0.00;;;;;;;10.09;93.05;100795.91;5074645;28;20171;-75
2022/07/28 02:21:38;;;;;;;0.00;0.00;;;;;;;10.01;93.28;100804.78;5073614;28;20182;-74
2022/07/28 02:24:06;;;;;;;0.00;0.00;;;;;;;9.88;93.66;100795.44;5074585;28;20206;-74
2022/07/28 02:26:36;;;;;;;0.00;0.00;;;;;;;9.76;94.04;100798.63;5074395;28;20261;-73
2022/07/28 02:29:05;;;;;;;0.10;0.10;;;;;;;9.68;94.87;100806.66;5074185;28;20182;-73
2022/07/28 02:31:45;;;;;;;0.00;0.00;;;;;;;9.60;95.64;100802.72;5074431;28;20685;-74
2022/07/28 02:34:13;;;;;;;0.00;0.00;;;;;;;9.58;96.35;100806.84;5072938;28;20261;-74
2022/07/28 02:36:49;;;;;;;0.00;0.00;;;;;;;9.52;96.56;100806.09;5074136;28;20178;-73
2022/07/28 02:39:22;;;;;;;0.20;0.20;;;;;;;9.55;97.74;100805.53;5074208;28;20170;-75
2022/07/28 02:41:51;;;;;;;0.00;0.00;;;;;;;9.58;97.65;100802.19;5074280;28;20635;-74
2022/07/28 02:44:20;;;;;;;0.00;0.00;;;;;;;9.56;97.95;100807.13;5074219;28;20208;-74
2022/07/28 02:46:50;;;;;;;0.00;0.00;;;;;;;9.54;97.60;100812.88;5073876;28;20185;-74
2022/07/28 02:49:22;;;;;;;0.00;0.00;;;;;;;9.44;97.80;100806.78;5073758;28;20638;-75
2022/07/28 02:51:50;;;;;;;0.40;0.40;;;;;;;9.34;98.30;100805.00;5072723;28;20186;-74
2022/07/28 02:54:17;;;;;;;0.00;0.00;;;;;;;9.25;99.20;100807.56;5074020;28;20182;-75
2022/07/28 02:56:46;;;;;;;0.00;0.00;;;;;;;9.22;100.00;100813.59;5073678;28;20531;-75
2022/07/28 02:59:13;;;;;;;0.00;0.00;;;;;;;9.30;100.00;100822.25;5073655;28;20171;-74
2022/07/28 03:01:38;;;;;;;0.63;0.63;;;;;;;9.35;100.00;100820.25;5072434;28;20202;-74
2022/07/28 03:04:04;;;;;;;0.00;0.00;;;;;;;9.40;100.00;100820.19;5073739;28;20291;-73
2022/07/28 03:06:30;;;;;;;0.00;0.00;;;;;;;9.43;100.00;100824.25;5072401;28;20630;-73
2022/07/28 03:08:56;;;;;;;4.97;1.03;;;;;;;9.43;100.00;100819.59;5071935;28;20185;-74
2022/07/28 03:11:21;;;;;;;0.00;0.00;;;;;;;9.42;100.00;100820.69;5073595;28;20174;-73
2022/07/28 03:13:47;;;;;;;0.00;0.00;;;;;;;9.37;100.00;100823.47;5074139;28;20179;-73
2022/07/28 03:16:13;;;;;;;0.00;0.00;;;;;;;9.45;100.00;100828.28;5073471;28;20247;-73
2022/07/28 03:18:38;;;;;;;0.00;0.00;;;;;;;9.54;100.00;100825.69;5073382;28;20175;-74
2022/07/28 03:21:03;;;;;;;0.00;0.00;;;;;;;9.69;100.00;100835.56;5070345;28;20186;-74
2022/07/28 03:23:35;;;;;;;0.00;0.00;;;;;;;9.78;100.00;100834.63;5073326;28;20230;-73
2022/07/28 03:26:07;;;;;;;0.00;0.00;;;;;;;9.97;100.00;100833.78;5073313;28;20684;-75
2022/07/28 03:28:34;;;;;;;0.00;0.00;;;;;;;10.10;100.00;100835.75;5071819;28;20405;-73
2022/07/28 03:31:06;;;;;;;0.00;0.00;;;;;;;10.20;100.00;100838.31;5072006;28;20212;-74
2022/07/28 03:33:31;;;;;;;0.00;0.00;;;;;;;10.23;98.47;100842.41;5073509;28;20697;-74
2022/07/28 03:36:01;;;;;;;0.57;0.20;;;;;;;10.21;97.10;100845.44;5073282;28;20261;-73
2022/07/28 03:38:43;;;;;;;0.00;0.00;;;;;;;10.17;96.36;100844.38;5071345;28;20178;-73
2022/07/28 03:41:10;;;;;;;0.00;0.00;;;;;;;10.18;95.97;100839.72;5071829;28;20174;-73
2022/07/28 03:43:36;;;;;;;0.00;0.00;;;;;;;10.24;95.89;100846.75;5073019;28;20210;-73
2022/07/28 03:46:02;;;;;;;0.00;0.00;;;;;;;10.31;96.29;100852.66;5073087;28;20218;-75
2022/07/28 03:48:31;;;;;;;0.00;0.00;;;;;;;10.40;95.83;100850.81;5072559;28;20669;-74
2022/07/28 03:50:56;;;;;;;0.00;0.00;;;;;;;10.46;95.33;100859.75;5071466;28;20520;-74
2022/07/28 03:53:25;;;;;;;0.00;0.00;;;;;;;10.45;95.12;100856.22;5072835;28;20185;-73
2022/07/28 03:55:52;;;;;;;0.00;0.00;;;;;;;10.46;94.59;100857.84;5072992;28;20229;-74
2022/07/28 03:58:23;;;;;;;0.00;0.00;;;;;;;10.49;94.88;100865.44;5072546;28;20284;-73
2022/07/28 04:00:48;;;;;;;0.00;0.00;;;;;;;10.53;94.56;100860.97;5072853;28;20171;-74
2022/07/28 04:03:15;;;;;;;0.00;0.00;;;;;;;10.51;95.04;100854.19;5072622;28;20614;-73
2022/07/28 04:05:40;;;;;;;0.00;0.00;;;;;;;10.50;94.91;100861.59;5071345;28;20174;-74
2022/07/28 04:08:05;;;;;;;0.00;0.00;;;;;;;10.57;94.95;100861.22;5072201;28;20494;-74
2022/07/28 04:10:31;;;;;;;0.00;0.00;;;;;;;10.61;94.69;100857.56;5072810;28;20217;-74
2022/07/28 04:12:58;;;;;;;0.00;0.00;;;;;;;10.60;94.13;100846.94;5072450;28;20170;-73
2022/07/28 04:15:26;;;;;;;0.00;0.00;;;;;;;10.57;94.38;100853.00;5072571;28;20178;-73
2022/07/28 04:17:53;;;;;;;0.00;0.00;;;;;;;10.59;94.71;100853.50;5072174;28;20642;-75
2022/07/28 04:20:20;;;;;;;0.00;0.00;;;;;;;10.61;94.79;100856.75;5070400;28;20167;-73
2022/07/28 04:22:47;;;;;;;0.00;0.00;;;;;;;10.64;95.27;100854.22;5072263;28;20199;-75
2022/07/28 04:25:13;;;;;;;0.00;0.00;;;;;;;10.68;95.27;100863.44;5068642;28;20205;-73
2022/07/28 04:27:40;;;;;;;0.00;0.00;;;;;;;10.77;95.51;100858.09;5069517;28;20171;-74
2022/07/28 04:30:12;;;;;;;0.00;0.00;;;;;;;10.96;96.76;100857.97;5071707;28;20182;-73
2022/07/28 04:32:38;;;;;;;0.00;0.00;;;;;;;10.93;95.13;100855.88;5071877;28;20175;-74
2022/07/28 04:35:05;;;;;;;0.00;0.00;;;;;;;11.16;94.74;100862.25;5072241;28;20228;-76
2022/07/28 04:37:30;;;;;;;0.00;0.00;;;;;;;11.29;93.58;100859.50;5072002;28;20293;-74
2022/07/28 04:39:55;;;;;;;0.00;0.00;;;;;;;11.38;92.84;100866.97;5071769;28;20293;-73
2022/07/28 04:42:21;;;;;;;0.00;0.00;;;;;;;11.45;92.12;100857.25;5071862;28;20198;-75
2022/07/28 04:44:47;;;;;;;0.47;0.47;;;;;;;11.49;91.99;100866.47;5070542;28;20255;-74
2022/07/28 04:47:12;;;;;;;0.00;0.00;;;;;;;11.53;90.99;100869.38;5070529;28;20174;-74
2022/07/28 04:49:39;;;;;;;0.00;0.00;;;;;;;11.58;91.21;100869.28;5071501;28;20177;-73
2022/07/28 04:52:07;;;;;;;0.00;0.00;;;;;;;11.68;91.34;100874.50;5071596;28;20233;-74
2022/07/28 04:54:32;;;;;;;0.00;0.00;;;;;;;11.71;91.04;100876.63;5070349;28;20202;-72
2022/07/28 04:56:58;;;;;;;0.00;0.00;;;;;;;11.75;90.02;100863.97;5070113;28;20205;-72
2022/07/28 04:59:23;;;;;;;0.00;0.00;;;;;;;11.78;89.24;100871.56;5070048;28;20263;-71
2022/07/28 05:01:48;;;;;;;0.00;0.00;;;;;;;11.80;89.30;100863.06;5071632;28;20696;-72
2022/07/28 05:04:14;;;;;;;0.00;0.00;;;;;;;11.82;88.78;100867.09;5070503;28;20202;-73
2022/07/28 05:06:40;;;;;;;0.00;0.00;;;;;;;11.85;88.48;100855.53;5069104;28;20174;-71
2022/07/28 05:09:05;;;;;;;0.00;0.00;;;;;;;11.67;88.15;100851.00;5071148;28;20635;-72
2022/07/28 05:11:30;;;;;;;0.00;0.00;;;;;;;11.65;87.91;100863.38;5070084;28;20622;-72
2022/07/28 05:13:56;;;;;;;0.00;0.00;;;;;;;11.52;87.56;100859.56;5071378;28;20614;-72
2022/07/28 05:16:21;;;;;;;0.00;0.00;;;;;;;11.33;89.82;100863.25;5071612;28;20177;-72
2022/07/28 05:18:46;;;;;;;0.00;0.00;;;;;;;11.19;90.71;100865.19;5070871;28;20178;-71
2022/07/28 05:21:12;;;;;;;0.00;0.00;;;;;;;11.21;92.12;100876.63;5070347;28;20163;-72
2022/07/28 05:23:37;;;;;;;0.00;0.00;;;;;;;11.32;91.96;100871.75;5069750;28;20697;-73
2022/07/28 05:26:03;;;;;;;0.00;0.00;;;;;;;11.21;91.42;100875.81;5071236;28;20640;-71
2022/07/28 05:28:29;;;;;;;0.00;0.00;;;;;;;11.34;91.49;100877.72;5070793;28;20170;-74
2022/07/28 05:30:54;;;;;;;0.00;0.00;;;;;;;11.52;90.87;100875.97;5071002;28;20166;-74
2022/07/28 05:33:20;;;;;;;0.00;0.00;;;;;;;11.76;90.83;100873.00;5071169;28;20171;-75
2022/07/28 05:35:52;;;;;;;0.00;0.00;;;;;;;11.66;88.47;100879.50;5069572;28;20174;-75
2022/07/28 05:38:17;;;;;;;0.00;0.00;;;;;;;11.85;88.07;100877.44;5070718;28;20170;-76
2022/07/28 05:40:43;;;;;;;0.00;0.00;;;;;;;12.03;87.33;100880.34;5071065;28;20690;-76
2022/07/28 05:43:08;;;;;;;0.00;0.00;;;;;;;11.92;86.38;100882.50;5070349;28;20203;-76
2022/07/28 05:45:34;;;;;;;0.00;0.00;;;;;;;11.91;85.71;100889.91;5070791;28;20196;-76
2022/07/28 05:47:59;;;;;;;0.00;0.00;;;;;;;12.10;86.23;100892.47;5070604;28;20170;-76
2022/07/28 05:50:25;;;;;;;0.00;0.00;;;;;;;11.99;86.36;100887.53;5070421;28;20190;-76
2022/07/28 05:52:50;;;;;;;0.00;0.00;;;;;;;11.90;86.22;100893.75;5069265;28;20170;-76
2022/07/28 05:55:16;;;;;;;0.00;0.00;;;;;;;11.86;86.02;100900.16;5070762;28;20223;-76
2022/07/28 05:57:42;;;;;;;0.00;0.00;;;;;;;11.95;86.09;100892.03;5069266;28;20189;-76
2022/07/28 06:00:13;;;;;;;0.00;0.00;;;;;;;12.01;86.79;100899.00;5070463;28;20172;-76
2022/07/28 06:02:40;;;;;;;0.00;0.00;;;;;;;12.01;86.14;100899.81;5069466;28;20234;-77
2022/07/28 06:05:06;;;;;;;0.00;0.00;;;;;;;12.02;86.05;100897.88;5070576;28;20170;-74
2022/07/28 06:07:31;;;;;;;0.00;0.00;;;;;;;12.17;85.98;100895.59;5070473;28;20182;-74
2022/07/28 06:09:57;;;;;;;0.00;0.00;;;;;;;12.09;85.15;100907.28;5070418;28;20248;-74
2022/07/28 06:12:22;;;;;;;0.00;0.00;;;;;;;11.99;85.94;100907.50;5070747;28;20182;-73
2022/07/28 06:14:47;;;;;;;0.00;0.00;;;;;;;12.28;85.41;100915.31;5066740;28;21275;-74
2022/07/28 06:17:14;;;;;;;0.00;0.00;;;;;;;12.32;85.61;100915.53;5069490;28;20244;-74
2022/07/28 06:19:40;;;;;;;0.00;0.00;;;;;;;12.21;86.06;100921.25;5069479;28;20174;-73
2022/07/28 06:22:06;;;;;;;0.00;0.00;;;;;;;12.33;86.49;100915.22;5070205;28;20185;-74
2022/07/28 06:24:31;;;;;;;0.00;0.00;;;;;;;12.59;86.76;100920.88;5069267;28;20182;-75
2022/07/28 06:26:56;;;;;;;0.00;0.00;;;;;;;12.72;85.89;100916.41;5067290;28;20183;-74
2022/07/28 06:29:23;;;;;;;0.00;0.00;;;;;;;12.86;85.25;100925.34;5068559;28;20183;-74
2022/07/28 06:31:49;;;;;;;0.00;0.00;;;;;;;13.09;84.70;100926.13;5070178;28;20221;-74
2022/07/28 06:34:14;;;;;;;0.00;0.00;;;;;;;13.16;83.11;100920.97;5068923;28;20209;-75
2022/07/28 06:36:39;;;;;;;0.00;0.00;;;;;;;13.32;82.03;100918.66;5068686;28;20627;-74
2022/07/28 06:39:05;;;;;;;0.00;0.00;;;;;;;13.37;80.75;100915.75;5068827;28;20195;-74
2022/07/28 06:41:30;;;;;;;0.00;0.00;;;;;;;13.45;80.20;100925.94;5070345;28;20185;-76
2022/07/28 06:43:55;;;;;;;0.90;0.30;;;;;;;13.52;80.29;100926.28;5068719;28;20218;-76
2022/07/28 06:46:21;;;;;;;0.00;0.00;;;;;;;13.83;80.66;100926.19;5068733;28;20484;-75
2022/07/28 06:48:47;;;;;;;0.00;0.00;;;;;;;13.82;79.63;100927.31;5069309;28;20210;-77
2022/07/28 06:51:17;;;;;;;0.00;0.00;;;;;;;13.96;78.63;100922.50;5070118;28;20229;-76
2022/07/28 06:53:43;;;;;;;0.00;0.00;;;;;;;14.04;77.23;100917.34;5070455;28;20206;-77
2022/07/28 06:56:09;;;;;;;0.00;0.00;;;;;;;14.35;77.33;100917.97;5073948;28;20179;-76
2022/07/28 06:58:34;;;;;;;0.00;0.00;;;;;;;14.32;75.49;100913.13;5072203;28;20170;-77
2022/07/28 07:01:01;;;;;;;0.20;0.20;;;;;;;14.25;75.11;100907.28;5073785;28;20199;-76
2022/07/28 07:03:26;;;;;;;0.00;0.00;;;;;;;14.43;74.89;100913.56;5073634;28;20201;-77
2022/07/28 07:05:52;;;;;;;0.30;0.30;;;;;;;14.56;73.90;100910.69;5073700;28;20175;-76
2022/07/28 07:08:19;;;;;;;0.00;0.00;;;;;;;14.66;73.20;100909.53;5073229;28;20662;-77
2022/07/28 07:10:44;;;;;;;11.03;1.07;;;;;;;14.77;71.97;100910.81;5072283;28;20179;-76
2022/07/28 07:13:10;;;;;;;0.03;0.03;;;;;;;14.76;71.38;100908.38;5073670;28;20266;-74
2022/07/28 07:15:35;;;;;;;0.00;0.00;;;;;;;14.51;70.27;100912.81;5073550;28;20213;-76
2022/07/28 07:18:00;;;;;;;0.00;0.00;;;;;;;14.62;70.91;100908.56;5073332;28;20167;-76
2022/07/28 07:20:26;;;;;;;2.27;0.17;;;;;;;14.89;70.49;100910.09;5072182;28;20170;-77
2022/07/28 07:22:52;;;;;;;0.00;0.00;;;;;;;14.91;70.38;100910.59;5073286;28;20191;-76
2022/07/28 07:25:18;;;;;;;1.90;0.40;;;;;;;14.74;70.15;100905.94;5073334;28;20224;-76
2022/07/28 07:27:45;;;;;;;0.00;0.00;;;;;;;14.92;70.11;100916.91;5073099;28;20546;-74
2022/07/28 07:30:12;;;;;;;0.20;0.20;;;;;;;14.84;69.12;100908.34;5073014;28;20198;-73
2022/07/28 07:32:39;;;;;;;0.00;0.00;;;;;;;15.25;69.90;100904.13;5071855;28;20536;-76
2022/07/28 07:35:05;;;;;;;0.00;0.00;;;;;;;15.06;67.57;100917.50;5073190;28;20548;-77
2022/07/28 07:37:33;;;;;;;0.20;0.20;;;;;;;15.24;69.15;100912.72;5072974;28;20167;-76
2022/07/28 07:40:00;;;;;;;0.00;0.00;;;;;;;15.46;67.99;100910.47;5072949;28;20211;-75
2022/07/28 07:42:26;;;;;;;0.00;0.00;;;;;;;15.50;67.71;100918.91;5073090;28;20429;-76
2022/07/28 07:44:51;;;;;;;0.10;0.10;;;;;;;15.43;66.05;100921.38;5072994;28;20228;-74
2022/07/28 07:47:17;;;;;;;0.17;0.17;;;;;;;15.70;65.35;100915.41;5072955;28;20638;-74
2022/07/28 07:49:42;;;;;;;0.00;0.00;;;;;;;15.61;65.29;100917.38;5072552;28;20678;-74
2022/07/28 07:52:07;;;;;;;2.27;0.67;;;;;;;15.46;65.51;100916.00;5071558;28;20174;-74
2022/07/28 07:54:33;;;;;;;0.00;0.00;;;;;;;15.69;65.81;100913.78;5072895;28;20190;-75
2022/07/28 07:56:58;;;;;;;0.00;0.00;;;;;;;15.89;64.59;100920.44;5072702;28;20170;-74
2022/07/28 07:59:23;;;;;;;0.33;0.20;;;;;;;15.78;64.43;100916.50;5071053;28;20269;-74
2022/07/28 08:01:53;;;;;;;0.20;0.20;;;;;;;15.78;64.41;100916.50;5068840;28;20189;-74
2022/07/28 08:04:19;;;;;;;0.00;0.00;;;;;;;16.16;64.48;100915.53;5067214;28;20214;-74
2022/07/28 08:06:45;;;;;;;0.30;0.30;;;;;;;15.79;64.15;100912.59;5056794;28;20698;-71
2022/07/28 08:09:10;;;;;;;0.03;0.03;;;;;;;16.15;64.03;100909.22;5072210;28;20231;-73
2022/07/28 08:11:35;;;;;;;0.00;0.00;;;;;;;15.94;62.93;100911.19;5072435;28;20178;-72
2022/07/28 08:14:01;;;;;;;0.00;0.00;;;;;;;16.00;63.39;100905.13;5072434;28;20207;-72
2022/07/28 08:16:26;;;;;;;0.00;0.00;;;;;;;16.39;62.63;100896.69;5070483;28;20175;-72
2022/07/28 08:18:52;;;;;;;0.17;0.00;;;;;;;16.36;62.90;100909.22;5072020;28;20622;-72
2022/07/28 08:21:18;;;;;;;0.10;0.10;;;;;;;16.37;61.82;100916.34;5068490;28;20188;-73
2022/07/28 08:23:43;;;;;;;0.00;0.00;;;;;;;16.40;62.10;100903.81;5070610;28;20362;-72
2022/07/28 08:26:08;;;;;;;0.00;0.00;;;;;;;16.47;61.92;100904.88;5072078;28;20183;-72
2022/07/28 08:28:34;;;;;;;0.00;0.00;;;;;;;16.57;61.67;100900.88;5071650;28;20185;-72
2022/07/28 08:31:00;;;;;;;0.00;0.00;;;;;;;16.85;61.45;100903.84;5072092;28;20209;-72
2022/07/28 08:33:25;;;;;;;0.00;0.00;;;;;;;16.65;60.42;100903.56;5072094;28;20175;-75
2022/07/28 08:35:50;;;;;;;0.00;0.00;;;;;;;16.83;60.94;100892.34;5070653;28;20224;-73
2022/07/28 08:38:16;;;;;;;0.20;0.20;;;;;;;16.58;60.26;100889.50;5071491;28;20175;-73
2022/07/28 08:40:44;;;;;;;2.30;0.77;;;;;;;16.59;59.09;100902.16;5071946;28;20236;-72
2022/07/28 08:43:28;;;;;;;0.00;0.00;;;;;;;16.62;59.85;100892.38;5070582;28;20650;-72
2022/07/28 08:45:54;;;;;;;0.00;0.00;;;;;;;16.69;59.64;100900.16;5070411;28;20179;-73
2022/07/28 08:48:21;;;;;;;0.00;0.00;;;;;;;16.49;59.87;100886.06;5071339;28;20167;-72
2022/07/28 08:50:48;;;;;;;0.00;0.00;;;;;;;16.75;59.40;100890.50;5069817;28;20194;-73
2022/07/28 08:53:14;;;;;;;0.00;0.00;;;;;;;16.69;58.72;100884.41;5071295;28;20175;-73
2022/07/28 08:55:40;;;;;;;0.00;0.00;;;;;;;16.75;58.83;100888.53;5071132;28;20627;-72
2022/07/28 08:58:06;;;;;;;0.00;0.00;;;;;;;16.79;58.06;100892.25;5069136;28;20170;-73
2022/07/28 09:00:31;;;;;;;0.20;0.20;;;;;;;16.89;58.36;100896.50;5065405;28;20185;-72
2022/07/28 09:02:58;;;;;;;0.00;0.00;;;;;;;16.99;58.20;100886.97;5067849;28;20211;-72
2022/07/28 09:05:24;;;;;;;0.27;0.17;;;;;;;16.76;57.27;100892.91;5068185;28;20634;-72
2022/07/28 09:07:51;;;;;;;0.57;0.20;;;;;;;17.02;58.34;100898.13;5071150;28;20179;-72
2022/07/28 09:10:18;;;;;;;0.00;0.00;;;;;;;17.07;57.84;100892.41;5071162;28;20182;-71
2022/07/28 09:12:44;;;;;;;0.70;0.10;;;;;;;17.14;57.78;100894.56;5070379;28;20694;-71
2022/07/28 09:15:12;;;;;;;0.00;0.00;;;;;;;17.23;57.77;100893.31;5071426;28;20576;-71
2022/07/28 09:17:41;;;;;;;0.40;0.17;;;;;;;17.29;57.75;100888.34;5070362;28;20175;-73
2022/07/28 09:20:07;;;;;;;0.00;0.00;;;;;;;17.55;58.45;100888.81;5069775;28;20209;-72
2022/07/28 09:22:34;;;;;;;0.00;0.00;;;;;;;17.80;57.06;100889.59;5071103;28;20222;-73
2022/07/28 09:25:02;;;;;;;0.00;0.00;;;;;;;17.71;56.70;100883.38;5071263;28;20533;-71
2022/07/28 09:27:50;;;;;;;0.13;0.13;;;;;;;17.91;56.27;100886.31;5073050;28;20634;-71
2022/07/28 09:30:29;;;;;;;0.00;0.00;;;;;;;17.97;56.36;100877.44;5070631;28;20185;-71
2022/07/28 09:33:15;;;;;;;0.20;0.00;;;;;;;18.00;56.07;100878.72;5071338;28;20211;-71
2022/07/28 09:35:50;;;;;;;0.00;0.00;;;;;;;18.25;56.16;100879.41;5069844;28;20175;-71
2022/07/28 09:38:16;;;;;;;0.57;0.40;;;;;;;18.20;55.23;100886.00;5069550;28;20212;-71
2022/07/28 09:40:43;;;;;;;0.00;0.00;;;;;;;17.82;55.33;100883.72;5068068;28;20213;-72
2022/07/28 09:43:09;;;;;;;0.30;0.30;;;;;;;17.86;56.13;100886.59;5069204;28;20199;-70
2022/07/28 09:45:35;;;;;;;0.00;0.00;;;;;;;17.70;55.71;100867.97;5070865;28;20210;-72
2022/07/28 09:48:07;;;;;;;0.67;0.20;;;;;;;17.81;56.29;100882.13;5070555;28;20269;-71
2022/07/28 09:50:32;;;;;;;0.20;0.20;;;;;;;18.17;56.00;100877.59;5050767;28;20240;-71
2022/07/28 09:53:01;;;;;;;1.37;0.00;;;;;;;18.27;55.62;100877.91;5049479;28;20198;-72
2022/07/28 09:55:26;;;;;;;0.00;0.00;;;;;;;18.31;55.12;100878.81;5050758;28;20258;-71
2022/07/28 09:57:53;;;;;;;0.00;0.00;;;;;;;18.16;55.50;100878.75;5050713;28;20599;-72
2022/07/28 10:00:30;;;;;;;0.00;0.00;;;;;;;18.46;55.00;100877.22;5050380;28;20167;-72
2022/07/28 10:02:55;;;;;;;0.00;0.00;;;;;;;18.52;53.93;100869.50;5050625;28;20252;-71
2022/07/28 10:05:21;;;;;;;0.00;0.00;;;;;;;18.88;54.94;100874.81;5050640;28;20183;-72
2022/07/28 10:07:49;;;;;;;0.00;0.00;;;;;;;18.93;53.61;100873.72;5048803;28;20175;-71
2022/07/28 10:10:19;;;;;;;0.00;0.00;;;;;;;18.71;54.95;100866.84;5067784;28;20183;-71
2022/07/28 10:12:44;;;;;;;0.10;0.10;;;;;;;18.68;54.35;100864.81;5068585;28;20560;-72
2022/07/28 10:17:56;;;;;;;0.00;0.00;;;;;;;19.01;54.19;100870.00;5070776;28;20169;-71
2022/07/28 10:20:22;;;;;;;0.40;0.30;;;;;;;19.17;53.44;100858.91;5068837;28;20185;-72
2022/07/28 10:22:48;;;;;;;0.10;0.07;;;;;;;18.89;53.92;100862.56;5070729;28;20202;-71
2022/07/28 10:25:15;;;;;;;0.00;0.00;;;;;;;18.91;54.40;100860.25;5070386;28;20178;-70
2022/07/28 10:27:42;;;;;;;0.00;0.00;;;;;;;19.00;54.30;100855.34;5070399;28;20178;-71
2022/07/28 10:30:08;;;;;;;0.00;0.00;;;;;;;19.22;52.53;100853.06;5072756;28;20254;-73
2022/07/28 10:32:43;;;;;;;0.00;0.00;;;;;;;18.92;52.77;100848.00;5074315;28;20414;-74
2022/07/28 10:35:13;;;;;;;0.00;0.00;;;;;;;19.28;52.84;100840.56;5073675;28;20228;-72
2022/07/28 10:38:03;;;;;;;0.00;0.00;;;;;;;19.78;52.99;100836.16;5072912;28;20206;-73
2022/07/28 10:40:36;;;;;;;0.00;0.00;;;;;;;19.78;52.07;100834.16;5068819;28;20235;-73
2022/07/28 10:43:01;;;;;;;0.00;0.00;;;;;;;19.78;50.87;100844.47;5074130;28;20226;-73
2022/07/28 10:45:27;;;;;;;0.00;0.00;;;;;;;19.92;51.48;100828.13;5074145;28;20266;-74
2022/07/28 10:47:55;;;;;;;1.50;1.40;;;;;;;19.61;50.49;100835.41;5074256;28;20179;-73
2022/07/28 10:50:21;;;;;;;0.00;0.00;;;;;;;19.70;50.79;100826.09;5072387;28;20190;-73
2022/07/28 10:52:48;;;;;;;0.00;0.00;;;;;;;19.69;51.86;100830.03;5074132;28;20182;-72
2022/07/28 10:55:36;;;;;;;1.10;0.40;;;;;;;19.49;51.13;100834.69;5073850;28;20635;-74
2022/07/28 10:58:08;;;;;;;0.00;0.00;;;;;;;19.91;51.73;100824.53;5073768;28;20184;-73
2022/07/28 11:00:40;;;;;;;2.93;2.03;;;;;;;19.77;50.24;100818.69;5073646;28;20270;-73
2022/07/28 11:03:06;;;;;;;0.00;0.00;;;;;;;19.41;50.33;100817.13;5072415;28;20211;-73
2022/07/28 11:05:33;;;;;;;1.23;0.73;;;;;;;19.78;51.05;100819.50;5072502;28;20582;-72
2022/07/28 11:08:01;;;;;;;0.47;0.47;;;;;;;19.97;49.99;100822.31;5073616;28;20174;-74
2022/07/28 11:10:28;;;;;;;0.10;0.10;;;;;;;19.85;49.48;100819.66;5073490;28;20182;-74
2022/07/28 11:12:56;;;;;;;1.90;0.43;;;;;;;20.11;49.50;100819.81;5071340;28;20607;-74
2022/07/28 11:15:36;;;;;;;2.23;0.63;;;;;;;20.32;49.59;100813.03;5072390;28;20627;-73
2022/07/28 11:18:07;;;;;;;0.50;0.50;;;;;;;20.05;49.42;100810.16;5072244;28;20234;-73
2022/07/28 11:20:57;;;;;;;0.00;0.00;;;;;;;19.93;49.99;100813.09;5072166;28;20175;-73
2022/07/28 11:23:45;;;;;;;0.10;0.10;;;;;;;20.33;49.32;100809.09;5073457;28;20775;-73
2022/07/28 11:26:19;;;;;;;0.00;0.00;;;;;;;20.53;48.87;100791.25;5073580;28;20262;-75
2022/07/28 11:28:59;;;;;;;0.17;0.17;;;;;;;21.00;46.73;100801.16;5072886;28;20171;-72
2022/07/28 11:31:43;;;;;;;0.00;0.00;;;;;;;21.05;47.22;100793.28;5073171;28;20189;-74
2022/07/28 11:34:20;;;;;;;0.00;0.00;;;;;;;21.39;48.11;100793.41;5068899;28;20770;-74